Time;durP1;ratioP1;P1;durP2;ratioP2;P2;SDS_P1;SDS_P2;PMS_P1;PMS_P2;Temp;Humidity;BMP_temperature;BMP_pressure;BME280_temperature;BME280_humidity;BME280_pressure;Samples;Min_cycle;Max_cycle;Signal;HPM_P1;HPM_P2
2021/04/20 00:00:55;;;;;;;24.25;17.20;;;;;;;14.80;48.85;100114.13;5032143;28;20050;-87
2021/04/20 00:03:22;;;;;;;22.50;16.63;;;;;;;14.73;48.71;100108.38;5033127;28;20049;-87
2021/04/20 00:05:48;;;;;;;23.70;17.92;;;;;;;14.68;49.26;100111.31;5031638;28;20060;-86
2021/04/20 00:08:14;;;;;;;24.35;17.75;;;;;;;14.63;49.38;100097.53;5033178;28;20049;-87
2021/04/20 00:10:40;;;;;;;25.05;18.45;;;;;;;14.61;49.44;100109.22;5074106;22;20056;-85
2021/04/20 00:13:06;;;;;;;22.58;16.58;;;;;;;14.59;49.57;100111.97;5033122;28;20045;-85
2021/04/20 00:15:34;;;;;;;25.23;17.92;;;;;;;14.58;49.91;100110.25;5032725;28;20053;-85
2021/04/20 00:18:04;;;;;;;22.38;16.35;;;;;;;14.56;49.48;100110.38;5032125;28;20092;-85
2021/04/20 00:20:30;;;;;;;21.73;16.33;;;;;;;14.55;49.29;100105.16;5033360;28;20037;-85
2021/04/20 00:22:57;;;;;;;23.00;15.77;;;;;;;14.52;49.39;100100.06;5032997;28;20056;-85
2021/04/20 00:25:23;;;;;;;18.90;13.52;;;;;;;14.46;49.33;100104.84;5032930;28;20053;-85
2021/04/20 00:27:49;;;;;;;22.73;15.57;;;;;;;14.40;49.28;100101.75;5031881;28;20050;-85
2021/04/20 00:30:16;;;;;;;23.55;17.25;;;;;;;14.33;49.48;100102.16;5032752;28;20050;-85
2021/04/20 00:32:43;;;;;;;24.13;17.92;;;;;;;14.28;49.70;100103.44;5032861;28;20045;-85
2021/04/20 00:35:11;;;;;;;20.45;15.23;;;;;;;14.20;49.51;100101.28;5031494;28;20076;-85
2021/04/20 00:37:37;;;;;;;20.77;15.63;;;;;;;14.13;49.22;100095.56;5032999;28;20053;-85
2021/04/20 00:40:05;;;;;;;21.50;16.00;;;;;;;14.06;49.50;100094.28;5032764;28;20046;-85
2021/04/20 00:42:32;;;;;;;24.67;17.38;;;;;;;13.98;49.52;100096.59;5032939;28;20119;-85
2021/04/20 00:44:58;;;;;;;23.65;17.52;;;;;;;13.90;49.70;100091.78;5031354;28;20049;-84
2021/04/20 00:47:24;;;;;;;24.40;17.90;;;;;;;13.81;49.80;100086.16;5032973;28;20064;-85
2021/04/20 00:49:50;;;;;;;26.27;19.15;;;;;;;13.74;49.89;100084.88;5031562;28;20056;-84
2021/04/20 00:52:16;;;;;;;25.33;17.75;;;;;;;13.68;50.02;100082.59;5033231;28;20049;-85
2021/04/20 00:54:42;;;;;;;23.92;15.75;;;;;;;13.63;50.11;100082.91;5034858;28;20057;-85
2021/04/20 00:57:09;;;;;;;25.45;17.58;;;;;;;13.59;50.06;100080.56;5036339;28;20073;-85
2021/04/20 00:59:35;;;;;;;25.05;18.73;;;;;;;13.53;50.25;100082.66;5034956;28;20504;-85
2021/04/20 01:02:02;;;;;;;28.83;20.25;;;;;;;13.49;50.49;100081.16;5034696;28;20119;-85
2021/04/20 01:04:28;;;;;;;24.67;17.23;;;;;;;13.42;50.24;100080.66;5034457;28;20468;-85
2021/04/20 01:06:55;;;;;;;27.00;18.15;;;;;;;13.37;50.51;100076.59;5036117;28;20049;-85
2021/04/20 01:09:22;;;;;;;27.73;19.25;;;;;;;13.32;50.41;100070.78;5035885;28;20465;-85
2021/04/20 01:11:49;;;;;;;29.63;20.50;;;;;;;13.25;50.62;100072.97;5036022;28;20494;-85
2021/04/20 01:14:15;;;;;;;30.02;20.05;;;;;;;13.19;50.83;100076.84;5035739;28;20065;-84
2021/04/20 01:16:41;;;;;;;28.92;19.90;;;;;;;13.14;50.97;100076.28;5034828;28;20049;-84
2021/04/20 01:19:08;;;;;;;31.02;21.38;;;;;;;13.09;51.07;100073.91;5034546;28;20056;-85
2021/04/20 01:21:38;;;;;;;29.83;20.10;;;;;;;13.07;51.63;100077.59;5035826;28;20053;-85
2021/04/20 01:24:25;;;;;;;28.30;18.80;;;;;;;13.02;51.63;100070.81;5034400;28;20050;-84
2021/04/20 01:26:52;;;;;;;27.92;18.70;;;;;;;13.06;51.13;100074.13;5035852;28;20049;-84
2021/04/20 01:29:21;;;;;;;28.15;19.38;;;;;;;13.03;51.36;100072.53;5035556;28;20053;-85
2021/04/20 01:31:47;;;;;;;28.25;19.55;;;;;;;13.02;51.01;100068.16;5035731;28;20049;-85
2021/04/20 01:34:14;;;;;;;29.70;20.20;;;;;;;13.02;51.27;100067.34;5034037;28;20585;-84
2021/04/20 01:36:40;;;;;;;28.88;20.50;;;;;;;13.01;51.12;100061.19;5035428;28;20053;-85
2021/04/20 01:39:10;;;;;;;30.13;20.10;;;;;;;13.00;51.80;100066.56;5034199;28;20100;-85
2021/04/20 01:41:37;;;;;;;29.00;20.63;;;;;;;13.00;51.33;100063.91;5035432;28;20143;-85
2021/04/20 01:44:05;;;;;;;31.17;20.88;;;;;;;13.01;51.45;100068.28;5034103;28;20413;-84
2021/04/20 01:46:32;;;;;;;29.52;20.65;;;;;;;13.00;51.63;100064.78;5035459;28;20054;-84
2021/04/20 01:48:58;;;;;;;31.42;20.98;;;;;;;12.99;51.31;100063.09;5035045;28;20100;-84
2021/04/20 01:51:26;;;;;;;32.03;21.73;;;;;;;12.99;51.38;100065.72;5035256;28;20064;-84
2021/04/20 01:53:53;;;;;;;34.08;22.90;;;;;;;12.99;51.33;100062.22;5035029;28;20053;-84
2021/04/20 01:56:19;;;;;;;32.70;21.10;;;;;;;12.98;51.43;100061.38;5035059;28;20057;-84
2021/04/20 01:58:47;;;;;;;31.77;21.05;;;;;;;12.95;51.23;100060.72;5033798;28;20505;-84
2021/04/20 02:01:16;;;;;;;27.42;19.55;;;;;;;12.91;51.16;100062.72;5035155;28;20045;-84
2021/04/20 02:03:45;;;;;;;29.88;19.27;;;;;;;12.90;51.01;100058.38;5034527;28;20056;-84
2021/04/20 02:06:12;;;;;;;32.42;21.10;;;;;;;12.85;51.25;100063.06;5033831;28;20061;-85
2021/04/20 02:08:38;;;;;;;30.17;21.20;;;;;;;12.81;51.45;100067.72;5035041;28;20057;-85
2021/04/20 02:11:07;;;;;;;31.52;20.92;;;;;;;12.77;51.60;100060.91;5033584;28;20053;-85
2021/04/20 02:13:34;;;;;;;29.15;20.30;;;;;;;12.74;51.39;100055.81;5033915;28;20057;-84
2021/04/20 02:16:02;;;;;;;30.90;20.95;;;;;;;12.73;51.79;100054.97;5034007;28;20049;-84
2021/04/20 02:18:30;;;;;;;28.30;20.00;;;;;;;12.71;51.81;100058.66;5032229;28;20110;-83
2021/04/20 02:20:57;;;;;;;26.00;19.15;;;;;;;12.72;51.56;100060.34;5032807;28;20494;-85
2021/04/20 02:23:23;;;;;;;26.38;19.10;;;;;;;12.71;51.75;100063.94;5033630;28;20053;-85
2021/04/20 02:25:52;;;;;;;26.45;18.65;;;;;;;12.71;51.91;100058.66;5034630;28;20444;-84
2021/04/20 02:28:19;;;;;;;29.13;19.20;;;;;;;12.70;51.67;100059.59;5033365;28;20183;-84
2021/04/20 02:30:45;;;;;;;31.60;20.75;;;;;;;12.69;51.58;100056.09;5034530;28;20444;-84
2021/04/20 02:33:12;;;;;;;31.08;21.00;;;;;;;12.69;51.83;100055.25;5034401;28;20060;-84
2021/04/20 02:35:39;;;;;;;28.13;19.48;;;;;;;12.68;51.73;100053.56;5034355;28;20095;-85
2021/04/20 02:38:07;;;;;;;27.02;19.05;;;;;;;12.68;51.97;100054.41;5034366;28;20065;-85
2021/04/20 02:40:35;;;;;;;28.52;19.48;;;;;;;12.68;52.02;100053.56;5034187;28;20111;-85
2021/04/20 02:43:02;;;;;;;26.38;18.27;;;;;;;12.69;51.79;100057.88;5034286;28;20047;-85
2021/04/20 02:45:28;;;;;;;28.25;18.73;;;;;;;12.68;51.92;100053.56;5033894;28;20403;-84
2021/04/20 02:47:55;;;;;;;23.95;17.42;;;;;;;12.66;52.09;100056.28;5034193;28;20060;-85
2021/04/20 02:50:27;;;;;;;25.02;17.67;;;;;;;12.64;52.16;100058.19;5034202;28;20072;-85
2021/04/20 02:52:56;;;;;;;27.35;18.92;;;;;;;12.63;52.05;100052.03;5034133;28;20547;-85
2021/04/20 02:55:23;;;;;;;29.25;21.13;;;;;;;12.61;51.90;100063.66;5033986;28;20053;-85
2021/04/20 02:57:54;;;;;;;44.85;22.23;;;;;;;12.56;52.36;100049.88;5033019;28;20056;-85
2021/04/20 03:00:23;;;;;;;30.40;19.90;;;;;;;12.50;52.25;100048.47;5032669;28;20049;-83
2021/04/20 03:02:57;;;;;;;26.45;19.98;;;;;;;12.46;52.88;100054.84;5034245;28;20049;-84
2021/04/20 03:05:26;;;;;;;34.17;20.83;;;;;;;12.41;52.42;100043.72;5033874;28;20055;-84
2021/04/20 03:07:52;;;;;;;29.55;20.65;;;;;;;12.38;52.60;100048.25;5033865;28;20049;-85
2021/04/20 03:10:19;;;;;;;32.67;22.55;;;;;;;12.36;52.80;100046.63;5033620;28;20045;-85
2021/04/20 03:12:47;;;;;;;30.40;20.17;;;;;;;12.36;53.20;100039.59;5032677;28;20422;-85
2021/04/20 03:15:18;;;;;;;29.95;20.38;;;;;;;12.39;53.95;100043.81;5031947;28;20069;-84
2021/04/20 03:17:46;;;;;;;32.25;21.40;;;;;;;12.43;53.61;100044.47;5033774;28;20076;-85
2021/04/20 03:20:14;;;;;;;30.77;20.70;;;;;;;12.50;53.62;100040.53;5033664;28;20061;-85
2021/04/20 03:22:42;;;;;;;35.80;20.50;;;;;;;12.56;53.46;100044.59;5032591;28;20049;-85
2021/04/20 03:25:17;;;;;;;28.58;20.35;;;;;;;12.61;53.92;100034.59;5032065;28;20049;-84
2021/04/20 03:27:48;;;;;;;28.15;19.15;;;;;;;12.69;53.88;100028.84;5033705;28;20049;-84
2021/04/20 03:30:17;;;;;;;28.90;19.95;;;;;;;12.75;53.42;100028.47;5032504;28;20057;-84
2021/04/20 03:33:10;;;;;;;29.83;21.55;;;;;;;12.77;53.74;100024.78;5033570;28;20057;-84
2021/04/20 03:35:57;;;;;;;28.27;18.95;;;;;;;12.84;53.36;100027.03;5015347;28;20050;-84
2021/04/20 03:39:06;;;;;;;27.50;18.90;;;;;;;12.85;53.08;100021.66;5033683;28;20511;-84
2021/04/20 03:41:40;;;;;;;30.15;19.42;;;;;;;12.91;52.97;100017.78;5032596;28;20050;-84
2021/04/20 03:44:13;;;;;;;28.45;18.85;;;;;;;12.92;52.88;100015.97;5032503;28;20049;-84
2021/04/20 03:46:44;;;;;;;45.23;22.07;;;;;;;12.92;53.08;100024.78;5032648;28;20045;-84
2021/04/20 03:49:26;;;;;;;31.73;19.98;;;;;;;12.88;53.32;100016.19;5033776;28;20053;-84
2021/04/20 03:51:55;;;;;;;34.87;21.33;;;;;;;12.91;52.85;100015.16;5033999;28;20045;-84
2021/04/20 03:54:24;;;;;;;32.97;22.52;;;;;;;12.92;53.04;100013.34;5032140;28;20291;-84
2021/04/20 03:56:54;;;;;;;30.35;21.75;;;;;;;12.90;52.84;100011.66;5033498;28;20049;-84
2021/04/20 03:59:22;;;;;;;32.00;21.13;;;;;;;12.90;53.16;100010.81;5033395;28;20111;-84
2021/04/20 04:01:50;;;;;;;29.10;19.90;;;;;;;12.90;52.90;100011.66;5033500;28;20042;-84
2021/04/20 04:04:23;;;;;;;29.48;19.15;;;;;;;12.90;53.17;100013.47;5033405;28;20049;-84
2021/04/20 04:06:51;;;;;;;32.45;21.70;;;;;;;12.91;52.60;99999.31;5032372;28;20054;-84
2021/04/20 04:09:19;;;;;;;29.75;19.88;;;;;;;12.91;52.90;100007.22;5033277;28;20049;-84
2021/04/20 04:11:54;;;;;;;29.35;19.92;;;;;;;12.88;52.91;100000.34;5033545;28;20056;-85
2021/04/20 04:14:23;;;;;;;30.88;21.65;;;;;;;12.87;52.88;100001.28;5033081;28;20391;-84
2021/04/20 04:16:51;;;;;;;27.90;18.38;;;;;;;12.85;52.60;100011.09;5032263;28;20084;-84
2021/04/20 04:19:21;;;;;;;26.98;18.90;;;;;;;12.81;52.69;100009.59;5033225;28;20054;-84
2021/04/20 04:21:52;;;;;;;30.60;20.08;;;;;;;12.77;53.40;100002.81;5033852;28;20045;-84
2021/04/20 04:24:19;;;;;;;35.15;20.20;;;;;;;12.76;52.71;100006.41;5033198;28;20111;-84
2021/04/20 04:26:51;;;;;;;28.75;19.17;;;;;;;12.74;52.81;100008.25;5034316;28;20057;-84
2021/04/20 04:29:20;;;;;;;28.20;18.23;;;;;;;12.72;52.99;99996.97;5036859;28;20081;-84
2021/04/20 04:31:47;;;;;;;30.90;20.15;;;;;;;12.70;52.94;100004.97;5037134;28;20052;-84
2021/04/20 04:34:16;;;;;;;26.42;17.67;;;;;;;12.70;52.84;100006.75;5036927;28;20055;-84
2021/04/20 04:36:43;;;;;;;32.13;20.70;;;;;;;12.68;53.02;100011.31;5037051;28;20049;-84
2021/04/20 04:39:16;;;;;;;34.92;22.88;;;;;;;12.63;53.68;100004.50;5035667;28;20391;-84
2021/04/20 04:41:43;;;;;;;28.75;19.73;;;;;;;12.63;53.03;100004.50;5035791;28;20049;-84
2021/04/20 04:44:13;;;;;;;28.98;19.52;;;;;;;12.62;53.44;100004.59;5036397;28;20057;-84
2021/04/20 04:46:40;;;;;;;32.28;20.42;;;;;;;12.61;53.04;100000.28;5036692;28;20092;-84
2021/04/20 04:49:08;;;;;;;33.60;21.65;;;;;;;12.58;53.30;100001.31;5036783;28;20068;-84
2021/04/20 04:51:37;;;;;;;37.22;23.45;;;;;;;12.57;53.58;100002.25;5036724;28;20091;-84
2021/04/20 04:54:13;;;;;;;33.55;23.13;;;;;;;12.56;53.69;100003.19;5036440;28;20049;-84
2021/04/20 04:56:41;;;;;;;38.70;23.15;;;;;;;12.56;53.76;100003.19;5035471;28;20053;-84
2021/04/20 04:59:08;;;;;;;32.30;21.67;;;;;;;12.57;53.65;100009.31;5036077;28;20053;-84
2021/04/20 05:01:37;;;;;;;37.00;24.17;;;;;;;12.55;53.99;100001.50;5034938;28;20486;-85
2021/04/20 05:04:06;;;;;;;39.13;24.75;;;;;;;12.55;54.07;100006.78;5034892;28;20053;-84
2021/04/20 05:06:38;;;;;;;36.85;23.58;;;;;;;12.57;54.26;100007.53;5034968;28;20053;-85
2021/04/20 05:09:11;;;;;;;33.88;22.38;;;;;;;12.57;54.37;100009.31;5035988;28;20053;-85
2021/04/20 05:11:42;;;;;;;38.55;24.20;;;;;;;12.57;54.33;100009.31;5034628;28;20046;-85
2021/04/20 05:14:13;;;;;;;37.50;24.85;;;;;;;12.59;54.26;100010.91;5034600;28;20060;-85
2021/04/20 05:16:41;;;;;;;44.22;26.35;;;;;;;12.59;54.04;100007.41;5034892;28;20457;-85
2021/04/20 05:19:10;;;;;;;36.05;23.60;;;;;;;12.61;54.44;100011.69;5034709;28;20132;-84
2021/04/20 05:21:38;;;;;;;41.42;26.00;;;;;;;12.62;54.11;100012.53;5035957;28;20077;-84
2021/04/20 05:24:04;;;;;;;41.10;24.98;;;;;;;12.64;54.08;100016.75;5035681;28;20053;-84
2021/04/20 05:26:32;;;;;;;37.85;26.08;;;;;;;12.65;54.38;100012.34;5035907;28;20081;-83
2021/04/20 05:29:03;;;;;;;36.10;23.73;;;;;;;12.64;54.89;100006.19;5034706;28;20053;-84
2021/04/20 05:31:30;;;;;;;39.75;26.27;;;;;;;12.67;54.36;100018.38;5034794;28;20103;-83
2021/04/20 05:34:01;;;;;;;42.90;27.67;;;;;;;12.66;55.10;100015.81;5034327;28;20079;-84
2021/04/20 05:36:28;;;;;;;36.85;24.63;;;;;;;12.69;54.57;100019.13;5035958;28;20127;-84
2021/04/20 05:38:56;;;;;;;39.83;25.73;;;;;;;12.70;54.58;100018.19;5034071;28;20053;-84
2021/04/20 05:41:27;;;;;;;41.35;25.95;;;;;;;12.69;54.97;100016.50;5034350;28;20045;-84
2021/04/20 05:43:55;;;;;;;43.63;26.23;;;;;;;12.71;54.48;100019.03;5035323;28;20049;-84
2021/04/20 05:46:22;;;;;;;34.80;23.02;;;;;;;12.72;54.38;100020.72;5035586;28;20053;-84
2021/04/20 05:48:49;;;;;;;34.47;23.35;;;;;;;12.70;54.46;100018.19;5034199;28;20049;-84
2021/04/20 05:51:16;;;;;;;40.95;25.50;;;;;;;12.70;54.60;100022.59;5034346;28;20064;-84
2021/04/20 05:53:44;;;;;;;37.35;25.52;;;;;;;12.69;54.65;100023.56;5034148;28;20049;-84
2021/04/20 05:56:10;;;;;;;44.80;26.77;;;;;;;12.67;54.63;100015.72;5035323;28;20045;-84
2021/04/20 05:58:36;;;;;;;45.08;27.95;;;;;;;12.67;54.70;100017.53;5033976;28;20053;-84
2021/04/20 06:01:05;;;;;;;43.13;26.13;;;;;;;12.64;54.90;100018.56;5033877;28;20461;-84
2021/04/20 06:03:37;;;;;;;39.45;25.88;;;;;;;12.62;55.47;100016.03;5033879;28;20049;-84
2021/04/20 06:06:04;;;;;;;38.72;25.50;;;;;;;12.62;54.99;100016.03;5033660;28;20560;-84
2021/04/20 06:08:36;;;;;;;42.90;26.05;;;;;;;12.60;55.69;100017.91;5035147;28;20060;-83
2021/04/20 06:11:04;;;;;;;38.22;26.10;;;;;;;12.63;55.21;100017.72;5074648;22;20164;-85
2021/04/20 06:13:31;;;;;;;43.95;28.05;;;;;;;12.64;55.32;100016.75;5033827;28;20053;-86
2021/04/20 06:15:57;;;;;;;43.42;28.30;;;;;;;12.67;55.51;100017.53;5050136;28;20049;-85
2021/04/20 06:18:24;;;;;;;46.58;29.50;;;;;;;12.69;55.63;100019.13;5034815;28;20060;-85
2021/04/20 06:20:51;;;;;;;46.88;29.63;;;;;;;12.73;55.69;100017.13;5033373;28;20102;-85
2021/04/20 06:23:18;;;;;;;42.58;27.33;;;;;;;12.76;55.80;100020.44;5034877;28;20050;-85
2021/04/20 06:25:45;;;;;;;44.80;28.13;;;;;;;12.81;55.93;100021.94;5033241;28;20076;-85
2021/04/20 06:28:14;;;;;;;43.67;26.98;;;;;;;12.83;56.69;100015.66;5033853;28;20049;-85
2021/04/20 06:30:41;;;;;;;42.88;28.10;;;;;;;12.89;56.10;100019.66;5034307;28;20042;-84
2021/04/20 06:33:08;;;;;;;47.00;30.58;;;;;;;12.93;56.49;100017.72;5034458;28;20053;-84
2021/04/20 06:35:37;;;;;;;48.15;30.05;;;;;;;12.97;56.78;100012.13;5034397;28;20049;-84
2021/04/20 06:38:03;;;;;;;45.28;29.67;;;;;;;13.02;56.70;100015.31;5034508;28;20064;-84
2021/04/20 06:40:36;;;;;;;47.50;31.33;;;;;;;13.08;57.37;100011.44;5032889;28;20052;-84
2021/04/20 06:43:06;;;;;;;;;;;;;;;13.16;56.32;100009.16;5033657;28;20560;-84
2021/04/20 06:45:35;;;;;;;45.15;28.70;;;;;;;13.29;56.23;100011.88;5033965;28;19925;-84
2021/04/20 06:48:23;;;;;;;49.03;30.15;;;;;;;13.33;56.73;100016.94;5032964;28;20136;-84
2021/04/20 06:50:56;;;;;;;47.60;29.63;;;;;;;13.43;56.85;100015.41;5033543;28;20140;-84
2021/04/20 06:53:37;;;;;;;45.35;28.60;;;;;;;13.50;56.74;100018.53;5033280;28;20433;-84
2021/04/20 06:56:29;;;;;;;54.38;34.05;;;;;;;13.58;56.84;100018.88;5032942;28;20081;-84
2021/04/20 06:59:17;;;;;;;43.85;29.25;;;;;;;13.66;56.50;100013.94;5034208;28;20054;-85
2021/04/20 07:01:48;;;;;;;47.20;30.55;;;;;;;13.77;56.36;100018.53;5033941;28;20041;-85
2021/04/20 07:04:44;;;;;;;48.47;30.50;;;;;;;13.82;56.53;100020.84;5032588;28;20547;-85
2021/04/20 07:07:25;;;;;;;47.85;30.52;;;;;;;13.92;56.10;100018.44;5033812;28;20497;-85
2021/04/20 07:10:00;;;;;;;47.90;30.73;;;;;;;13.98;56.00;100011.91;5032471;28;20056;-84
2021/04/20 07:12:26;;;;;;;46.83;29.83;;;;;;;14.06;55.78;100014.88;5033941;28;20045;-84
2021/04/20 07:14:55;;;;;;;46.90;30.15;;;;;;;14.11;55.96;100017.19;5032774;28;20057;-84
2021/04/20 07:17:29;;;;;;;48.72;30.90;;;;;;;14.16;55.92;100015.06;5033894;28;20127;-84
2021/04/20 07:20:03;;;;;;;47.00;31.23;;;;;;;14.21;56.00;100005.03;5033659;28;20057;-84
2021/04/20 07:23:01;;;;;;;45.80;30.55;;;;;;;14.25;56.07;100008.31;5033809;28;20057;-83
2021/04/20 07:25:57;;;;;;;45.45;31.30;;;;;;;14.35;55.77;100013.84;5033374;28;20445;-84
2021/04/20 07:28:45;;;;;;;46.33;29.67;;;;;;;14.36;55.99;100004.94;5033692;28;20056;-84
2021/04/20 07:31:28;;;;;;;45.15;30.02;;;;;;;14.41;55.58;100008.97;5033515;28;20052;-84
2021/04/20 07:34:08;;;;;;;44.58;29.70;;;;;;;14.47;55.37;100010.34;5032279;28;20057;-84
2021/04/20 07:37:04;;;;;;;46.53;30.38;;;;;;;14.49;55.63;100010.22;5032449;28;20049;-84
2021/04/20 07:40:10;;;;;;;47.58;30.45;;;;;;;14.54;55.54;100008.94;5032212;28;20042;-84
2021/04/20 07:42:42;;;;;;;42.75;28.48;;;;;;;14.61;55.65;100014.66;5032338;28;20111;-84
2021/04/20 07:45:27;;;;;;;45.65;30.33;;;;;;;14.63;55.59;100001.31;5032119;28;20053;-85
2021/04/20 07:48:07;;;;;;;47.75;31.55;;;;;;;14.68;55.56;100012.44;5033350;28;20042;-86
2021/04/20 07:50:41;;;;;;;44.22;29.63;;;;;;;14.73;55.23;100011.16;5033196;28;20540;-85
2021/04/20 07:53:59;;;;;;;48.45;30.27;;;;;;;14.76;55.26;100012.75;5032097;28;20053;-85
2021/04/20 07:56:33;;;;;;;43.25;28.95;;;;;;;14.84;55.43;100014.91;4956378;28;20051;-85
2021/04/20 07:59:08;;;;;;;45.15;31.13;;;;;;;14.89;55.30;100015.41;4972399;28;20065;-85
2021/04/20 08:01:47;;;;;;;43.88;30.27;;;;;;;14.92;55.15;100011.69;5015672;28;20543;-86
2021/04/20 08:04:55;;;;;;;45.42;29.65;;;;;;;14.95;54.89;100007.00;5035966;28;20072;-86
2021/04/20 08:07:58;;;;;;;41.78;29.25;;;;;;;15.01;54.96;100013.69;5037358;28;20505;-85
2021/04/20 08:10:29;;;;;;;40.45;27.25;;;;;;;15.11;54.59;100017.34;5035736;28;20049;-85
2021/04/20 08:13:04;;;;;;;43.53;28.60;;;;;;;15.15;54.74;100011.84;5036060;28;20115;-85
2021/04/20 08:15:43;;;;;;;44.47;30.35;;;;;;;15.19;54.13;100016.81;5035873;28;20053;-86
2021/04/20 08:18:18;;;;;;;40.53;25.30;;;;;;;15.25;53.66;100012.84;5036002;28;20058;-85
2021/04/20 08:20:46;;;;;;;37.88;26.17;;;;;;;15.33;53.70;100014.97;5035731;28;20057;-86
2021/04/20 08:23:14;;;;;;;42.97;27.20;;;;;;;15.39;53.59;100013.69;5035778;28;20057;-85
2021/04/20 08:25:50;;;;;;;37.22;26.35;;;;;;;15.43;53.45;100007.16;5036909;28;20075;-86
2021/04/20 08:28:37;;;;;;;39.03;26.98;;;;;;;15.49;53.62;100004.94;5036952;28;20100;-86
2021/04/20 08:31:09;;;;;;;37.55;25.35;;;;;;;15.59;53.48;100004.25;5035747;28;20042;-86
2021/04/20 08:33:39;;;;;;;39.30;25.50;;;;;;;15.65;53.72;100009.06;5036722;28;20049;-86
2021/04/20 08:36:18;;;;;;;40.00;26.60;;;;;;;15.73;53.17;100005.84;5035450;28;20049;-85
2021/04/20 08:38:53;;;;;;;36.03;23.92;;;;;;;15.80;52.93;100007.09;5035585;28;20071;-86
2021/04/20 08:41:30;;;;;;;35.85;25.17;;;;;;;15.90;53.12;100007.25;5036745;28;20092;-86
2021/04/20 08:44:27;;;;;;;31.10;21.55;;;;;;;15.97;52.61;100000.56;5035177;28;20099;-85
2021/04/20 08:47:19;;;;;;;28.08;17.52;;;;;;;16.07;51.43;100002.50;5036588;28;20148;-85
2021/04/20 08:49:53;;;;;;;23.63;15.90;;;;;;;16.22;51.67;100003.13;5035184;28;20057;-85
2021/04/20 08:52:39;;;;;;;27.80;16.08;;;;;;;16.27;50.35;100004.44;5036443;28;20046;-85
2021/04/20 08:55:24;;;;;;;25.70;15.68;;;;;;;16.40;50.85;100006.16;5034958;28;20049;-85
2021/04/20 08:57:56;;;;;;;24.15;16.75;;;;;;;16.47;50.36;99995.91;5035357;28;20053;-84
2021/04/20 09:00:28;;;;;;;26.17;17.25;;;;;;;16.55;50.63;99996.16;5036479;28;20054;-85
2021/04/20 09:03:18;;;;;;;25.23;17.02;;;;;;;16.62;50.24;99999.16;5035151;28;20041;-85
2021/04/20 09:05:54;;;;;;;25.10;15.90;;;;;;;16.74;50.23;99998.19;5034937;28;20056;-85
2021/04/20 09:08:46;;;;;;;25.27;17.92;;;;;;;16.85;50.61;100000.00;5035156;28;20088;-85
2021/04/20 09:11:19;;;;;;;28.52;17.63;;;;;;;16.99;50.61;99988.28;5034565;28;20056;-85
2021/04/20 09:13:52;;;;;;;;;;;;;;;17.08;50.92;99988.53;5034381;28;20053;-86
2021/04/20 09:16:31;;;;;;;20.80;13.48;;;;;;;17.23;48.96;99994.41;5035943;28;19948;-85
2021/04/20 09:18:59;;;;;;;24.40;17.20;;;;;;;17.32;49.76;99994.50;5035797;28;20052;-86
2021/04/20 09:21:39;;;;;;;23.80;15.48;;;;;;;17.38;48.70;99993.16;5035715;28;20041;-86
2021/04/20 09:24:29;;;;;;;24.30;15.63;;;;;;;17.47;48.59;99990.69;5034498;28;20050;-86
2021/04/20 09:27:21;;;;;;;22.17;14.40;;;;;;;17.58;48.54;99994.16;5035836;28;20045;-86
2021/04/20 09:29:56;;;;;;;20.85;14.60;;;;;;;17.69;47.82;99997.75;5034442;28;20099;-86
2021/04/20 09:32:49;;;;;;;22.08;13.98;;;;;;;17.78;48.41;99991.66;5035465;28;20164;-87
2021/04/20 09:35:16;;;;;;;22.13;15.00;;;;;;;17.93;48.37;99991.34;5026698;28;20133;-86
2021/04/20 09:37:43;;;;;;;22.00;14.00;;;;;;;18.03;48.35;99988.75;5034228;28;20295;-86
2021/04/20 09:40:18;;;;;;;18.58;13.60;;;;;;;18.10;47.11;99992.63;5035300;28;20049;-86
2021/04/20 09:42:50;;;;;;;16.98;13.00;;;;;;;18.22;47.42;99996.03;5035460;28;20046;-87
2021/04/20 09:45:29;;;;;;;20.58;14.07;;;;;;;18.30;47.24;99992.72;5035288;28;20057;-86
2021/04/20 09:48:08;;;;;;;19.23;13.73;;;;;;;18.40;47.17;99995.44;5035414;28;20437;-87
2021/04/20 09:51:10;;;;;;;16.27;12.23;;;;;;;18.49;46.76;99989.28;5035301;28;20053;-87
2021/04/20 09:53:42;;;;;;;18.33;12.52;;;;;;;18.64;46.53;99988.97;5035295;28;20053;-87
2021/04/20 09:56:38;;;;;;;17.75;12.35;;;;;;;18.69;46.33;99987.56;5034178;28;20080;-86
2021/04/20 09:59:12;;;;;;;17.13;11.55;;;;;;;18.83;46.46;99985.47;5033933;28;20049;-86
2021/04/20 10:01:56;;;;;;;19.70;11.52;;;;;;;18.91;45.23;99988.31;5034117;28;20045;-86
2021/04/20 10:04:22;;;;;;;16.02;11.93;;;;;;;19.05;46.42;99986.25;5035287;28;20453;-86
2021/04/20 10:07:11;;;;;;;15.27;11.55;;;;;;;19.12;46.01;99993.63;5033869;28;20417;-86
2021/04/20 10:09:56;;;;;;;17.45;12.40;;;;;;;19.27;46.32;99991.38;5033562;28;20057;-86
2021/04/20 10:12:28;;;;;;;20.05;12.60;;;;;;;19.40;45.87;99985.78;5033732;28;20050;-86
2021/04/20 10:15:24;;;;;;;17.27;12.55;;;;;;;19.47;45.06;99988.72;5033297;28;20060;-86
2021/04/20 10:18:16;;;;;;;17.92;12.50;;;;;;;19.61;44.06;99982.13;5034787;28;20091;-86
2021/04/20 10:21:20;;;;;;;17.85;11.93;;;;;;;19.71;44.29;99990.13;5033266;28;20107;-86
2021/04/20 10:23:59;;;;;;;16.98;11.95;;;;;;;19.83;44.16;99985.47;5034869;28;20041;-86
2021/04/20 10:26:37;;;;;;;16.38;12.25;;;;;;;19.91;43.86;99984.75;5033775;28;20111;-86
2021/04/20 10:29:15;;;;;;;17.85;12.07;;;;;;;20.00;43.67;99981.25;5033380;28;20045;-86
2021/04/20 10:31:55;;;;;;;19.00;12.40;;;;;;;20.07;43.18;99973.50;5034600;28;20486;-86
2021/04/20 10:34:22;;;;;;;20.85;12.20;;;;;;;20.18;44.21;99968.00;5033057;28;20057;-86
2021/04/20 10:36:54;;;;;;;18.23;12.95;;;;;;;20.26;43.73;99966.44;5033395;28;20056;-87
2021/04/20 10:39:26;;;;;;;15.80;12.02;;;;;;;20.41;43.98;99964.13;5034241;28;20045;-86
2021/04/20 10:41:54;;;;;;;19.45;12.73;;;;;;;20.55;43.56;99960.13;5034466;28;20057;-86
2021/04/20 10:44:24;;;;;;;16.00;11.95;;;;;;;20.69;42.80;99958.78;5032947;28;20045;-86
2021/04/20 10:46:55;;;;;;;17.52;11.50;;;;;;;20.85;43.06;99955.47;5033392;28;20041;-86
2021/04/20 10:49:24;;;;;;;18.30;12.45;;;;;;;21.02;43.35;99958.34;5033053;28;20053;-86
2021/04/20 10:51:57;;;;;;;17.02;12.10;;;;;;;21.22;43.59;99956.38;5034258;28;20103;-86
2021/04/20 10:54:35;;;;;;;;;;;;;;;21.41;44.70;99947.34;5033232;28;20395;-86
2021/04/20 10:57:03;;;;;;;13.85;11.35;;;;;;;21.76;42.73;99954.69;5033094;28;20274;-86
2021/04/20 10:59:35;;;;;;;17.48;12.25;;;;;;;22.03;42.76;99947.50;5033963;28;20058;-86
2021/04/20 11:02:09;;;;;;;13.85;11.23;;;;;;;22.41;42.56;99931.97;5034062;28;20050;-86
2021/04/20 11:04:37;;;;;;;16.23;12.90;;;;;;;22.87;42.28;99941.53;5034307;28;20049;-86
2021/04/20 11:07:20;;;;;;;17.83;11.65;;;;;;;23.36;41.96;99935.44;5033972;28;20061;-85
2021/04/20 11:09:57;;;;;;;14.82;11.20;;;;;;;23.95;41.39;99938.91;5033514;28;20050;-85
2021/04/20 11:12:24;;;;;;;17.60;11.48;;;;;;;24.54;40.66;99931.53;5032757;28;20096;-85
2021/04/20 11:14:52;;;;;;;14.48;10.73;;;;;;;25.06;40.00;99935.50;5033438;28;20049;-86
2021/04/20 11:17:43;;;;;;;14.82;11.35;;;;;;;25.58;37.46;99929.56;5033867;28;20400;-85
2021/04/20 11:20:12;;;;;;;13.23;10.90;;;;;;;26.12;39.06;99925.81;5033386;28;20053;-85
2021/04/20 11:23:10;;;;;;;14.73;9.82;;;;;;;26.52;38.81;99928.25;5032553;28;20049;-86
2021/04/20 11:25:42;;;;;;;12.15;10.55;;;;;;;26.80;34.89;99927.53;5028153;28;20203;-85
2021/04/20 11:28:31;;;;;;;13.52;9.52;;;;;;;26.82;35.43;99921.94;5033676;28;20457;-85
2021/04/20 11:31:01;;;;;;;13.15;10.75;;;;;;;26.90;35.14;99924.53;5032160;28;20045;-85
2021/04/20 11:33:55;;;;;;;12.68;10.00;;;;;;;26.97;35.67;99918.38;5033478;28;20046;-85
2021/04/20 11:36:51;;;;;;;13.90;9.48;;;;;;;27.26;35.11;99917.44;5033150;28;20045;-84
2021/04/20 11:39:44;;;;;;;13.73;10.65;;;;;;;27.63;35.39;99917.34;5020298;28;20076;-84